Time;durP1;ratioP1;P1;durP2;ratioP2;P2;SDS_P1;SDS_P2;PMS_P1;PMS_P2;Temp;Humidity;BMP_temperature;BMP_pressure;BME280_temperature;BME280_humidity;BME280_pressure;Samples;Min_cycle;Max_cycle;Signal;HPM_P1;HPM_P2
2022/05/12 00:01:36;;;;;;;4.25;3.45;;;;;;;16.53;100.00;101457.97;2617663;54;20145;-64
2022/05/12 00:04:09;;;;;;;2.28;2.05;;;;;;;15.97;100.00;101468.09;2617820;54;20138;-64
2022/05/12 00:06:39;;;;;;;0.10;0.10;;;;;;;15.83;100.00;101468.22;2617643;54;20164;-64
2022/05/12 00:09:10;;;;;;;0.00;0.00;;;;;;;15.88;100.00;101472.22;2617708;54;20145;-64
2022/05/12 00:11:40;;;;;;;0.28;0.28;;;;;;;15.97;100.00;101457.59;2617454;54;20142;-65
2022/05/12 00:14:10;;;;;;;3.58;1.00;;;;;;;15.74;100.00;101471.47;2617459;54;20169;-66
2022/05/12 00:16:41;;;;;;;0.83;0.83;;;;;;;15.77;100.00;101471.25;2617496;54;20146;-66
2022/05/12 00:19:14;;;;;;;11.02;10.00;;;;;;;15.55;100.00;101463.22;2617760;54;20673;-63
2022/05/12 00:21:44;;;;;;;6.85;1.23;;;;;;;15.63;100.00;101466.16;2617648;54;20138;-65
2022/05/12 00:24:16;;;;;;;4.22;1.55;;;;;;;15.61;100.00;101460.16;2617780;54;20542;-64
2022/05/12 00:26:46;;;;;;;8.45;4.20;;;;;;;15.46;100.00;101462.88;2617600;54;20133;-64
2022/05/12 00:29:17;;;;;;;1.08;1.08;;;;;;;15.71;100.00;101464.69;2617732;54;20134;-65
2022/05/12 00:31:48;;;;;;;0.28;0.28;;;;;;;15.77;100.00;101464.25;2617653;54;20141;-65
2022/05/12 00:34:23;;;;;;;3.90;3.70;;;;;;;16.11;100.00;101461.88;2617622;54;20133;-65
2022/05/12 00:36:53;;;;;;;0.10;0.10;;;;;;;16.21;100.00;101458.50;2617703;54;20689;-63
2022/05/12 00:39:23;;;;;;;3.22;2.88;;;;;;;15.73;100.00;101464.56;2617554;54;20141;-65
2022/05/12 00:41:53;;;;;;;6.30;2.88;;;;;;;15.12;100.00;101418.22;2617634;54;20674;-65
2022/05/12 00:44:24;;;;;;;4.13;2.50;;;;;;;15.17;100.00;101457.94;2618228;39;20592;-65
2022/05/12 00:46:54;;;;;;;2.40;1.17;;;;;;;15.44;100.00;101458.72;2617400;54;20145;-64
2022/05/12 00:49:31;;;;;;;0.00;0.00;;;;;;;15.85;100.00;101458.47;2617600;54;20269;-65
2022/05/12 00:52:07;;;;;;;0.43;0.40;;;;;;;15.86;100.00;101463.59;2617469;54;20137;-65
2022/05/12 00:54:44;;;;;;;0.88;0.55;;;;;;;15.84;100.00;101449.81;2617212;54;20140;-65
2022/05/12 00:57:19;;;;;;;16.13;2.75;;;;;;;15.76;100.00;101444.28;2617623;54;20134;-65
2022/05/12 00:59:50;;;;;;;2.58;0.75;;;;;;;15.80;100.00;101455.38;2618069;39;20692;-65
2022/05/12 01:02:24;;;;;;;2.75;1.45;;;;;;;15.57;100.00;101456.09;2617486;54;20134;-65
2022/05/12 01:04:59;;;;;;;3.85;2.80;;;;;;;14.46;100.00;101456.50;2617598;54;20149;-65
2022/05/12 01:07:30;;;;;;;6.25;1.55;;;;;;;14.47;100.00;101459.97;2618021;39;20561;-65
2022/05/12 01:10:00;;;;;;;3.73;1.23;;;;;;;14.38;100.00;101458.78;2617503;54;20176;-64
2022/05/12 01:12:31;;;;;;;0.97;0.70;;;;;;;14.78;100.00;101450.97;2617507;54;20141;-65
2022/05/12 01:15:01;;;;;;;3.90;1.30;;;;;;;14.42;100.00;101459.41;2617588;54;20141;-65
2022/05/12 01:17:32;;;;;;;10.30;2.83;;;;;;;14.17;100.00;101457.47;2617429;54;20142;-65
2022/05/12 01:20:05;;;;;;;0.37;0.37;;;;;;;14.01;100.00;101461.97;2617609;54;20160;-64
2022/05/12 01:22:46;;;;;;;0.60;0.60;;;;;;;14.34;100.00;101452.03;2617199;54;20191;-64
2022/05/12 01:25:22;;;;;;;1.35;1.25;;;;;;;14.16;100.00;101458.44;2617547;54;20145;-65
2022/05/12 01:27:52;;;;;;;0.80;0.80;;;;;;;13.56;100.00;101463.06;2617146;54;20140;-65
2022/05/12 01:30:26;;;;;;;3.37;1.43;;;;;;;12.87;100.00;101466.22;2618012;39;20555;-65
2022/05/12 01:32:56;;;;;;;1.23;1.13;;;;;;;12.94;100.00;101469.31;2617572;54;20134;-65
2022/05/12 01:35:27;;;;;;;4.67;1.50;;;;;;;12.81;100.00;101465.72;2617510;54;20682;-64
2022/05/12 01:37:58;;;;;;;2.73;2.43;;;;;;;12.71;100.00;101468.03;2617360;54;20249;-65
2022/05/12 01:40:30;;;;;;;2.43;2.20;;;;;;;12.77;100.00;101464.22;2617703;39;20559;-65
2022/05/12 01:43:01;;;;;;;0.73;0.73;;;;;;;13.30;100.00;101461.16;2617707;54;20180;-64
2022/05/12 01:45:31;;;;;;;0.30;0.30;;;;;;;13.80;100.00;101468.53;2617433;54;20252;-64
2022/05/12 01:48:01;;;;;;;2.97;1.47;;;;;;;14.02;100.00;101466.28;2617760;39;20623;-64
2022/05/12 01:50:32;;;;;;;1.87;0.90;;;;;;;14.19;100.00;101463.47;2617421;54;20210;-64
2022/05/12 01:53:03;;;;;;;3.53;2.10;;;;;;;14.06;100.00;101462.53;2617373;54;20148;-64
2022/05/12 01:55:36;;;;;;;2.73;1.23;;;;;;;14.58;100.00;101454.03;2617560;54;20138;-65
2022/05/12 01:58:06;;;;;;;3.10;2.63;;;;;;;14.70;100.00;101458.47;2617349;54;20133;-65
2022/05/12 02:00:37;;;;;;;9.70;5.40;;;;;;;14.72;100.00;101464.44;2617410;54;20509;-64
2022/05/12 02:03:09;;;;;;;1.92;1.88;;;;;;;15.00;100.00;101462.50;2617278;54;20137;-65
2022/05/12 02:05:41;;;;;;;1.33;1.27;;;;;;;15.36;100.00;101461.00;2617312;54;20149;-64
2022/05/12 02:08:14;;;;;;;3.60;2.40;;;;;;;15.20;100.00;101469.06;2618203;54;20141;-64
2022/05/12 02:10:49;;;;;;;1.80;1.70;;;;;;;15.10;100.00;101470.59;2618163;54;20134;-64
2022/05/12 02:13:25;;;;;;;2.43;1.50;;;;;;;15.45;100.00;101474.28;2618042;54;20141;-63
2022/05/12 02:15:57;;;;;;;0.93;0.57;;;;;;;15.29;100.00;101472.78;2618131;54;20141;-64
2022/05/12 02:18:29;;;;;;;0.20;0.20;;;;;;;15.43;100.00;101473.56;2618011;54;20142;-64
2022/05/12 02:21:00;;;;;;;0.60;0.60;;;;;;;15.28;100.00;101473.75;2618122;54;20137;-64
2022/05/12 02:23:30;;;;;;;0.65;0.63;;;;;;;15.15;100.00;101475.50;2618205;54;20223;-64
2022/05/12 02:26:03;;;;;;;1.30;0.27;;;;;;;15.39;100.00;101477.31;2618130;54;20160;-64
2022/05/12 02:28:33;;;;;;;1.80;1.70;;;;;;;14.91;100.00;101475.38;2618249;54;20149;-63
2022/05/12 02:31:03;;;;;;;3.93;2.77;;;;;;;14.90;100.00;101460.63;2618029;54;20142;-63
2022/05/12 02:33:33;;;;;;;0.00;0.00;;;;;;;15.14;100.00;101479.06;2618105;54;20152;-63
2022/05/12 02:36:04;;;;;;;2.27;2.17;;;;;;;15.05;100.00;101477.88;2618076;54;20145;-65
2022/05/12 02:38:35;;;;;;;3.10;2.90;;;;;;;14.78;100.00;101479.72;2618017;54;20146;-65
2022/05/12 02:41:07;;;;;;;0.97;0.97;;;;;;;15.06;100.00;101469.13;2618028;54;20141;-65
2022/05/12 02:43:38;;;;;;;3.37;3.13;;;;;;;14.94;100.00;101472.53;2617770;47;20160;-64
2022/05/12 02:46:10;;;;;;;0.93;0.90;;;;;;;14.81;100.00;101479.50;2618104;54;20149;-65
2022/05/12 02:48:42;;;;;;;3.03;1.55;;;;;;;14.85;100.00;101483.59;2618013;54;20146;-64
2022/05/12 02:51:13;;;;;;;6.03;3.50;;;;;;;14.87;100.00;101484.34;2618071;54;20673;-64
2022/05/12 02:53:43;;;;;;;3.27;2.60;;;;;;;14.99;100.00;101483.53;2617929;54;20679;-64
2022/05/12 02:56:16;;;;;;;2.00;1.90;;;;;;;15.18;100.00;101475.31;2618101;39;20409;-63
2022/05/12 02:58:46;;;;;;;2.53;1.65;;;;;;;15.12;100.00;101481.78;2617852;54;20149;-63
2022/05/12 03:01:17;;;;;;;1.23;1.13;;;;;;;14.96;100.00;101481.13;2617961;54;20152;-64
2022/05/12 03:03:47;;;;;;;2.17;2.03;;;;;;;14.92;100.00;101487.50;2617787;54;20145;-64
2022/05/12 03:06:18;;;;;;;3.20;2.93;;;;;;;14.90;100.00;101484.97;2617907;54;20145;-64
2022/05/12 03:08:48;;;;;;;2.60;1.80;;;;;;;15.07;100.00;101488.25;2617826;54;20137;-64
2022/05/12 03:11:21;;;;;;;4.30;2.17;;;;;;;15.01;100.00;101494.72;2617961;54;20133;-63
2022/05/12 03:13:51;;;;;;;1.50;1.40;;;;;;;14.89;100.00;101492.91;2618076;54;20685;-64
2022/05/12 03:16:22;;;;;;;0.63;0.63;;;;;;;14.99;100.00;101496.59;2617854;54;20142;-65
2022/05/12 03:18:53;;;;;;;5.13;2.73;;;;;;;15.07;100.00;101501.31;2617640;54;20134;-64
2022/05/12 03:21:24;;;;;;;3.80;2.10;;;;;;;15.04;100.00;101497.16;2617698;54;20140;-63
2022/05/12 03:23:54;;;;;;;0.80;0.73;;;;;;;15.11;100.00;101501.03;2616103;54;20196;-64
2022/05/12 03:26:27;;;;;;;5.13;3.47;;;;;;;15.05;100.00;101511.88;2616491;54;20141;-65
2022/05/12 03:28:57;;;;;;;1.57;0.90;;;;;;;14.94;100.00;101511.75;2616350;54;20680;-64
2022/05/12 03:31:27;;;;;;;6.83;4.70;;;;;;;14.99;100.00;101507.06;2616450;54;20141;-64
2022/05/12 03:33:59;;;;;;;2.27;1.67;;;;;;;15.14;100.00;101506.03;2616417;54;20145;-65
2022/05/12 03:36:31;;;;;;;10.70;4.00;;;;;;;15.13;100.00;101520.03;2616358;54;20287;-64
2022/05/12 03:39:01;;;;;;;10.05;4.85;;;;;;;14.96;100.00;101513.31;2616354;54;20141;-65
2022/05/12 03:41:34;;;;;;;12.63;4.95;;;;;;;14.93;100.00;101516.13;2616057;54;20148;-65
2022/05/12 03:46:47;;;;;;;4.37;2.93;;;;;;;14.88;100.00;101517.38;2616309;54;20142;-66
2022/05/12 03:49:17;;;;;;;8.90;4.45;;;;;;;15.08;100.00;101514.31;2616396;54;20148;-65
2022/05/12 03:51:48;;;;;;;8.27;4.15;;;;;;;15.27;100.00;101517.38;2617385;54;20149;-65
2022/05/12 03:54:19;;;;;;;1.27;1.27;;;;;;;15.49;100.00;101515.94;2617567;54;20149;-65
2022/05/12 03:56:52;;;;;;;4.80;4.33;;;;;;;15.43;100.00;101517.19;2617697;54;20149;-66
2022/05/12 03:59:23;;;;;;;8.50;2.47;;;;;;;15.54;100.00;101517.31;2617698;54;20149;-66
2022/05/12 04:01:53;;;;;;;2.17;2.00;;;;;;;15.64;100.00;101512.31;2617989;54;20142;-65
2022/05/12 04:04:23;;;;;;;5.90;2.92;;;;;;;15.64;100.00;101525.38;2617910;39;20215;-65
2022/05/12 04:06:54;;;;;;;1.52;1.45;;;;;;;15.69;100.00;101525.88;2618143;39;20585;-65
2022/05/12 04:09:24;;;;;;;2.17;1.73;;;;;;;15.62;100.00;101522.03;2617779;54;20134;-64
2022/05/12 04:11:58;;;;;;;2.95;2.33;;;;;;;15.57;100.00;101529.34;2617546;54;20149;-65
2022/05/12 04:14:28;;;;;;;2.63;1.97;;;;;;;15.40;100.00;101531.31;2618117;39;20224;-64
2022/05/12 04:16:58;;;;;;;6.63;3.67;;;;;;;15.38;100.00;101533.16;2617728;54;20133;-65
2022/05/12 04:19:28;;;;;;;0.80;0.80;;;;;;;15.46;100.00;101533.50;2617515;54;20687;-64
2022/05/12 04:21:58;;;;;;;8.07;5.83;;;;;;;15.61;100.00;101538.66;2617852;54;20138;-64
2022/05/12 04:24:29;;;;;;;8.93;6.50;;;;;;;15.61;100.00;101536.03;2617469;54;20134;-64
2022/05/12 04:27:02;;;;;;;19.92;12.02;;;;;;;15.58;100.00;101539.72;2617676;54;20138;-64
2022/05/12 04:29:33;;;;;;;5.53;5.05;;;;;;;15.59;100.00;101541.38;2617799;54;20141;-64
2022/05/12 04:32:04;;;;;;;4.75;4.32;;;;;;;15.73;100.00;101545.66;2617360;54;20141;-64
2022/05/12 04:37:16;;;;;;;2.00;1.90;;;;;;;15.90;100.00;101540.97;2617784;54;20148;-65
2022/05/12 04:39:46;;;;;;;3.03;1.75;;;;;;;15.93;100.00;101539.91;2617523;54;20172;-64
2022/05/12 04:42:19;;;;;;;5.60;3.97;;;;;;;16.01;100.00;101544.63;2617688;54;20141;-65
2022/05/12 04:44:50;;;;;;;11.98;6.43;;;;;;;15.86;100.00;101544.75;2617598;54;20134;-64
2022/05/12 04:47:20;;;;;;;7.35;3.15;;;;;;;16.15;100.00;101547.97;2617758;54;20140;-65
2022/05/12 04:49:50;;;;;;;14.05;3.60;;;;;;;16.24;100.00;101549.09;2617575;54;20137;-65
2022/05/12 04:52:20;;;;;;;2.85;2.65;;;;;;;16.30;100.00;101552.13;2617677;54;20134;-65
2022/05/12 04:54:51;;;;;;;2.55;2.28;;;;;;;16.27;100.00;101557.59;2617595;54;20157;-65
2022/05/12 04:57:24;;;;;;;28.85;3.60;;;;;;;16.56;100.00;101554.69;2617700;54;20149;-64
2022/05/12 04:59:58;;;;;;;1.60;1.40;;;;;;;16.76;100.00;101554.13;2617364;54;20408;-64
2022/05/12 05:02:28;;;;;;;6.53;1.83;;;;;;;16.62;100.00;101559.50;2617574;54;20145;-65
2022/05/12 05:04:58;;;;;;;2.65;1.55;;;;;;;16.73;100.00;101551.72;2616421;54;20141;-66
2022/05/12 05:07:29;;;;;;;1.93;1.73;;;;;;;16.93;100.00;101545.84;2615774;54;20434;-65
2022/05/12 05:09:59;;;;;;;1.95;1.73;;;;;;;16.95;100.00;101543.13;2615970;54;20141;-65
2022/05/12 05:12:31;;;;;;;2.05;1.92;;;;;;;17.00;100.00;101549.72;2616027;54;20142;-65
2022/05/12 05:15:04;;;;;;;9.00;1.20;;;;;;;16.84;100.00;101557.03;2615852;54;20142;-65
2022/05/12 05:17:36;;;;;;;5.72;5.43;;;;;;;16.77;100.00;101551.38;2616435;39;20563;-65
2022/05/12 05:20:07;;;;;;;1.40;1.30;;;;;;;16.76;100.00;101546.25;2617230;54;20137;-65
2022/05/12 05:22:37;;;;;;;2.45;2.25;;;;;;;16.65;100.00;101546.22;2617372;46;20218;-65
2022/05/12 05:25:09;;;;;;;1.23;0.40;;;;;;;16.78;100.00;101554.84;2617255;54;20141;-65
2022/05/12 05:27:43;;;;;;;1.30;1.23;;;;;;;16.73;100.00;101555.16;2617497;54;20133;-66
2022/05/12 05:30:18;;;;;;;1.10;1.05;;;;;;;16.74;100.00;101554.22;2617543;54;20149;-66
2022/05/12 05:32:48;;;;;;;4.28;2.83;;;;;;;16.88;100.00;101558.47;2617476;54;20688;-65
2022/05/12 05:35:18;;;;;;;5.85;4.22;;;;;;;17.00;100.00;101548.88;2617487;54;20148;-65
2022/05/12 05:37:49;;;;;;;3.08;2.83;;;;;;;16.92;100.00;101556.47;2617416;54;20138;-65
2022/05/12 05:40:21;;;;;;;2.03;1.92;;;;;;;16.94;100.00;101557.19;2617379;54;20138;-66
2022/05/12 05:42:55;;;;;;;3.63;2.80;;;;;;;17.11;100.00;101557.63;2618745;39;20540;-65
2022/05/12 05:45:27;;;;;;;5.63;3.93;;;;;;;17.09;100.00;101551.63;2617740;47;20408;-66
2022/05/12 05:47:59;;;;;;;10.05;7.25;;;;;;;17.10;100.00;101569.06;2618138;54;20181;-66
2022/05/12 05:53:23;;;;;;;7.32;6.45;;;;;;;17.23;100.00;101554.09;2618194;54;20149;-65
2022/05/12 05:53:25;;;;;;;6.00;5.43;;;;;;;17.27;100.00;101558.16;2618333;54;20669;-66
2022/05/12 05:55:58;;;;;;;1.77;1.50;;;;;;;17.39;100.00;101560.81;2618058;54;20146;-67
2022/05/12 05:58:32;;;;;;;4.60;4.32;;;;;;;17.59;100.00;101562.81;2618337;47;20133;-67
2022/05/12 06:01:03;;;;;;;3.85;2.08;;;;;;;17.72;100.00;101560.94;2618073;54;20164;-65
2022/05/12 06:03:34;;;;;;;2.88;1.75;;;;;;;17.87;100.00;101557.13;2618108;54;20149;-64
2022/05/12 06:06:04;;;;;;;2.20;1.50;;;;;;;17.93;100.00;101558.47;2618103;54;20150;-65
2022/05/12 06:08:34;;;;;;;2.13;2.03;;;;;;;18.10;100.00;101565.84;2618196;54;20148;-65
2022/05/12 06:11:05;;;;;;;2.58;1.60;;;;;;;18.24;100.00;101563.00;2617972;54;20669;-64
2022/05/12 06:13:38;;;;;;;2.95;2.72;;;;;;;18.21;100.00;101558.78;2618208;54;20134;-65
2022/05/12 06:16:08;;;;;;;3.55;2.13;;;;;;;18.21;100.00;101566.66;2618045;54;20674;-65
2022/05/12 06:18:39;;;;;;;1.30;1.20;;;;;;;18.42;100.00;101571.19;2618327;54;20146;-65
2022/05/12 06:21:12;;;;;;;2.30;2.20;;;;;;;18.61;100.00;101566.22;2618036;54;20142;-65
2022/05/12 06:23:43;;;;;;;1.15;1.10;;;;;;;18.96;100.00;101564.19;2618326;54;20781;-65
2022/05/12 06:26:15;;;;;;;1.05;1.00;;;;;;;19.16;100.00;101568.66;2617724;54;20142;-64
2022/05/12 06:28:48;;;;;;;1.38;0.47;;;;;;;19.15;100.00;101559.09;2617752;54;20146;-65
2022/05/12 06:31:24;;;;;;;2.33;0.82;;;;;;;19.06;100.00;101561.63;2617790;54;20157;-65
2022/05/12 06:33:55;;;;;;;2.40;2.25;;;;;;;19.13;100.00;101557.56;2618108;54;20149;-64
2022/05/12 06:36:29;;;;;;;0.57;0.57;;;;;;;19.13;100.00;101562.81;2618130;54;20141;-64
2022/05/12 06:39:00;;;;;;;3.03;1.58;;;;;;;19.22;100.00;101561.22;2618576;39;20521;-65
2022/05/12 06:41:32;;;;;;;7.05;1.55;;;;;;;19.35;100.00;101560.06;2617831;54;20169;-65
2022/05/12 06:44:04;;;;;;;0.73;0.73;;;;;;;19.52;100.00;101550.78;2618151;54;20173;-66
2022/05/12 06:46:36;;;;;;;3.17;1.73;;;;;;;19.40;100.00;101559.69;2617886;54;20720;-65
2022/05/12 06:49:06;;;;;;;6.75;2.83;;;;;;;19.49;100.00;101557.16;2618088;54;20152;-64
2022/05/12 06:51:37;;;;;;;1.45;1.35;;;;;;;19.63;100.00;101559.47;2617836;54;20149;-65
2022/05/12 06:54:09;;;;;;;4.20;3.80;;;;;;;19.72;100.00;101549.94;2617760;47;20141;-65
2022/05/12 06:56:40;;;;;;;1.98;1.67;;;;;;;19.66;100.00;101545.19;2617930;54;20229;-65
2022/05/12 06:59:13;;;;;;;0.55;0.55;;;;;;;19.84;100.00;101548.91;2618624;39;20530;-65
2022/05/12 07:01:43;;;;;;;6.18;2.80;;;;;;;20.03;100.00;101556.88;2617733;54;20134;-65
2022/05/12 07:04:13;;;;;;;1.73;1.63;;;;;;;19.98;100.00;101553.81;2618194;39;20535;-65
2022/05/12 07:06:43;;;;;;;3.83;1.08;;;;;;;20.31;100.00;101552.72;2617749;54;20157;-65
2022/05/12 07:09:18;;;;;;;0.73;0.70;;;;;;;20.52;100.00;101547.38;2618526;39;20623;-65
2022/05/12 07:11:49;;;;;;;0.68;0.68;;;;;;;20.73;100.00;101542.84;2618361;39;20588;-66
2022/05/12 07:14:21;;;;;;;1.27;1.02;;;;;;;20.63;100.00;101547.25;2618250;54;20140;-66
2022/05/12 07:16:52;;;;;;;1.35;1.25;;;;;;;20.59;100.00;101543.22;2618044;54;20146;-65
2022/05/12 07:19:22;;;;;;;0.63;0.57;;;;;;;20.97;100.00;101540.63;2618103;54;20168;-65
2022/05/12 07:27:18;;;;;;;0.30;0.30;;;;;;;21.20;100.00;101538.56;2618211;54;20148;-65
2022/05/12 07:29:51;;;;;;;1.15;0.60;;;;;;;21.44;100.00;101538.13;2618361;39;20513;-65
2022/05/12 07:32:21;;;;;;;0.40;0.40;;;;;;;21.62;98.49;101547.00;2618031;54;20149;-65
2022/05/12 07:34:52;;;;;;;0.28;0.28;;;;;;;21.78;97.33;101536.66;2618061;54;20142;-65
2022/05/12 07:37:22;;;;;;;0.63;0.57;;;;;;;21.95;95.76;101548.28;2617818;54;20141;-66
2022/05/12 07:39:52;;;;;;;1.35;1.25;;;;;;;21.97;93.65;101540.22;2617649;54;20141;-65
2022/05/12 07:42:22;;;;;;;0.35;0.35;;;;;;;21.94;92.63;101536.06;2617741;54;20165;-66
2022/05/12 07:44:55;;;;;;;1.45;1.13;;;;;;;21.99;93.62;101539.09;2617758;54;20149;-65
2022/05/12 07:47:26;;;;;;;0.85;0.85;;;;;;;22.15;93.59;101536.66;2617662;54;20145;-65
2022/05/12 07:49:57;;;;;;;2.53;2.42;;;;;;;22.20;91.71;101538.84;2617688;54;20141;-66
2022/05/12 07:52:29;;;;;;;0.20;0.20;;;;;;;22.37;91.66;101536.28;2617760;54;20134;-66
2022/05/12 07:55:00;;;;;;;0.00;0.00;;;;;;;22.39;91.07;101539.59;2617546;54;20133;-65
2022/05/12 07:57:30;;;;;;;1.17;0.85;;;;;;;22.21;89.54;101538.72;2617709;54;20141;-65
2022/05/12 08:00:05;;;;;;;0.20;0.20;;;;;;;22.12;92.33;101534.31;2617989;54;20164;-65
2022/05/12 08:02:36;;;;;;;1.05;1.05;;;;;;;22.37;91.62;101533.63;2617726;54;20141;-67
2022/05/12 08:05:07;;;;;;;0.13;0.13;;;;;;;22.66;90.16;101536.09;2617440;54;20134;-67
2022/05/12 08:07:38;;;;;;;0.00;0.00;;;;;;;22.81;89.55;101531.97;2617521;54;20142;-66
2022/05/12 08:10:09;;;;;;;0.88;0.73;;;;;;;23.04;86.16;101523.56;2617917;54;20134;-66
2022/05/12 08:12:40;;;;;;;1.15;1.10;;;;;;;23.25;85.49;101524.06;2617634;54;20142;-66
2022/05/12 08:15:13;;;;;;;1.27;1.17;;;;;;;23.31;84.06;101526.06;2617752;54;20148;-66
2022/05/12 08:17:43;;;;;;;3.53;1.27;;;;;;;23.30;80.22;101525.28;2617938;54;20142;-66
2022/05/12 08:20:14;;;;;;;0.25;0.25;;;;;;;23.43;80.74;101532.00;2617727;54;20134;-66
2022/05/12 08:22:45;;;;;;;1.98;1.55;;;;;;;23.34;80.19;101528.44;2617642;54;20728;-65
2022/05/12 08:25:15;;;;;;;0.57;0.57;;;;;;;23.23;80.60;101521.56;2617661;54;20142;-66
2022/05/12 08:27:47;;;;;;;0.80;0.80;;;;;;;23.32;78.60;101530.41;2617651;54;20376;-66
2022/05/12 08:30:20;;;;;;;2.50;1.90;;;;;;;23.38;79.67;101529.78;2617715;54;20140;-66
2022/05/12 08:32:50;;;;;;;0.00;0.00;;;;;;;23.59;79.79;101524.97;2617718;39;20556;-66
2022/05/12 08:35:21;;;;;;;0.00;0.00;;;;;;;23.75;78.88;101517.13;2617721;54;20148;-65
2022/05/12 08:37:51;;;;;;;0.60;0.60;;;;;;;23.94;75.70;101526.69;2617588;54;20141;-66
2022/05/12 08:40:33;;;;;;;0.82;0.82;;;;;;;23.91;73.56;101521.69;2617568;54;20164;-65
2022/05/12 08:43:13;;;;;;;0.00;0.00;;;;;;;23.91;75.75;101521.69;2617700;54;20141;-66
2022/05/12 08:45:48;;;;;;;4.60;2.13;;;;;;;23.98;71.81;101522.72;2617635;54;20141;-66
2022/05/12 08:48:18;;;;;;;0.52;0.30;;;;;;;24.03;72.05;101531.00;2618077;39;20543;-66
2022/05/12 08:50:53;;;;;;;2.40;1.90;;;;;;;24.25;70.56;101524.34;2617394;54;20142;-65
2022/05/12 08:53:28;;;;;;;4.40;0.70;;;;;;;24.20;69.71;101527.47;2617653;47;20138;-66
2022/05/12 08:56:00;;;;;;;2.50;1.90;;;;;;;23.94;70.66;101520.53;2617450;54;20148;-66
2022/05/12 08:58:35;;;;;;;0.20;0.20;;;;;;;24.17;70.86;101519.84;2617699;54;20148;-66
2022/05/12 09:01:14;;;;;;;0.88;0.63;;;;;;;24.52;67.47;101513.47;2617518;47;20141;-66
2022/05/12 09:04:01;;;;;;;1.20;0.55;;;;;;;24.73;66.73;101514.81;2617272;54;20266;-66
2022/05/12 09:06:35;;;;;;;0.00;0.00;;;;;;;24.87;64.29;101509.75;2617549;47;20140;-67
2022/05/12 09:09:12;;;;;;;0.25;0.25;;;;;;;25.19;63.34;101513.38;2617700;54;20149;-66
2022/05/12 09:11:48;;;;;;;0.00;0.00;;;;;;;25.16;60.57;101517.19;2617352;54;20658;-66
2022/05/12 09:14:24;;;;;;;0.43;0.43;;;;;;;25.48;60.39;101516.31;2618231;39;20556;-67
2022/05/12 09:16:58;;;;;;;0.15;0.15;;;;;;;25.66;56.89;101508.19;2618049;54;20141;-66
2022/05/12 09:19:30;;;;;;;0.80;0.77;;;;;;;25.92;53.91;101508.75;2617810;54;20148;-66
2022/05/12 09:22:00;;;;;;;0.00;0.00;;;;;;;26.05;55.01;101514.34;2618012;54;20146;-64
2022/05/12 09:24:31;;;;;;;0.70;0.70;;;;;;;25.97;52.16;101509.06;2618229;54;20141;-64
2022/05/12 09:27:10;;;;;;;0.20;0.20;;;;;;;25.97;51.09;101503.75;2618047;54;20134;-66
2022/05/12 09:29:46;;;;;;;0.10;0.10;;;;;;;25.96;51.44;101507.38;2618410;54;20148;-66
2022/05/12 09:32:25;;;;;;;0.08;0.08;;;;;;;25.92;48.97;101508.75;2618060;54;20141;-66
2022/05/12 09:35:11;;;;;;;0.00;0.00;;;;;;;26.12;48.35;101499.34;2618276;54;20674;-66
2022/05/12 09:37:43;;;;;;;0.22;0.22;;;;;;;25.99;46.92;101501.75;2618114;54;20141;-66
2022/05/12 09:40:20;;;;;;;0.00;0.00;;;;;;;26.11;46.95;101494.22;2618321;54;20146;-67
2022/05/12 09:42:52;;;;;;;0.57;0.57;;;;;;;26.04;45.78;101504.69;2618177;54;20277;-66
2022/05/12 09:45:30;;;;;;;0.10;0.08;;;;;;;26.12;46.40;101490.56;2618123;54;20150;-66
2022/05/12 09:48:21;;;;;;;0.50;0.50;;;;;;;26.02;47.45;101493.41;2618025;47;20138;-66
2022/05/12 09:50:53;;;;;;;1.33;0.45;;;;;;;26.16;47.27;101491.88;2618020;54;20162;-66
2022/05/12 09:53:30;;;;;;;0.68;0.68;;;;;;;26.13;46.36;101492.19;2617656;54;20148;-65
2022/05/12 09:56:06;;;;;;;0.10;0.10;;;;;;;26.40;47.19;101483.78;2617948;39;20636;-66
2022/05/12 09:58:41;;;;;;;0.55;0.55;;;;;;;26.47;44.13;101487.38;2617848;54;20149;-67
2022/05/12 10:01:24;;;;;;;6.05;0.98;;;;;;;26.38;42.56;101481.28;2618015;54;20149;-67
2022/05/12 10:10:05;;;;;;;0.40;0.40;;;;;;;26.65;40.10;101479.09;2617102;54;20144;-67
2022/05/12 10:12:41;;;;;;;0.13;0.13;;;;;;;26.29;41.16;101487.66;2617815;47;20148;-66
2022/05/12 10:15:20;;;;;;;0.85;0.85;;;;;;;26.66;40.61;101483.41;2617922;54;20673;-65
2022/05/12 10:17:53;;;;;;;1.95;1.50;;;;;;;26.10;40.85;101488.06;2617564;54;20133;-65
2022/05/12 10:20:28;;;;;;;0.43;0.38;;;;;;;26.21;42.38;101479.72;2617934;39;20548;-66
2022/05/12 10:23:04;;;;;;;0.22;0.20;;;;;;;26.54;42.92;101481.19;2618131;39;20565;-65
2022/05/12 10:26:02;;;;;;;0.00;0.00;;;;;;;26.95;41.28;101483.56;2617815;54;20668;-67
2022/05/12 10:28:48;;;;;;;0.43;0.43;;;;;;;27.16;40.19;101478.38;2617429;47;20168;-68
2022/05/12 10:31:27;;;;;;;0.30;0.30;;;;;;;27.40;40.75;101467.44;2617642;54;20142;-66
2022/05/12 10:34:09;;;;;;;0.13;0.13;;;;;;;27.57;39.31;101473.44;2617725;54;20662;-66
2022/05/12 10:36:52;;;;;;;0.35;0.35;;;;;;;27.43;38.98;101463.59;2617680;39;20518;-66
2022/05/12 10:39:29;;;;;;;0.30;0.30;;;;;;;27.22;39.12;101466.97;2616999;54;20168;-66
2022/05/12 10:42:22;;;;;;;0.20;0.20;;;;;;;26.98;37.95;101462.72;2617729;39;20522;-66
